sensor_id;sensor_type;location;lat;lon;timestamp;P1;durP1;ratioP1;P2;durP2;ratioP2
74383;SDS011;62824;52.994;-3.936;2022-12-10T00:01:26;12.27;;;5.28;;
74383;SDS011;62824;52.994;-3.936;2022-12-10T00:03:54;7.53;;;4.32;;
74383;SDS011;62824;52.994;-3.936;2022-12-10T00:06:23;6.80;;;3.83;;
74383;SDS011;62824;52.994;-3.936;2022-12-10T00:08:51;4.82;;;2.63;;
74383;SDS011;62824;52.994;-3.936;2022-12-10T00:11:18;3.00;;;1.67;;
74383;SDS011;62824;52.994;-3.936;2022-12-10T00:13:44;6.47;;;2.30;;
74383;SDS011;62824;52.994;-3.936;2022-12-10T00:16:12;4.60;;;2.13;;
74383;SDS011;62824;52.994;-3.936;2022-12-10T00:18:39;6.68;;;2.88;;
74383;SDS011;62824;52.994;-3.936;2022-12-10T00:21:06;5.78;;;2.40;;
74383;SDS011;62824;52.994;-3.936;2022-12-10T00:23:34;7.72;;;3.20;;
74383;SDS011;62824;52.994;-3.936;2022-12-10T00:26:01;4.20;;;2.28;;
74383;SDS011;62824;52.994;-3.936;2022-12-10T00:28:31;5.82;;;3.00;;
74383;SDS011;62824;52.994;-3.936;2022-12-10T00:31:58;10.32;;;4.40;;
74383;SDS011;62824;52.994;-3.936;2022-12-10T00:33:55;7.00;;;4.35;;
74383;SDS011;62824;52.994;-3.936;2022-12-10T00:36:23;10.23;;;5.13;;
74383;SDS011;62824;52.994;-3.936;2022-12-10T00:38:51;9.07;;;4.75;;
74383;SDS011;62824;52.994;-3.936;2022-12-10T00:41:17;7.25;;;3.38;;
74383;SDS011;62824;52.994;-3.936;2022-12-10T00:43:43;9.32;;;4.80;;
74383;SDS011;62824;52.994;-3.936;2022-12-10T00:46:10;8.25;;;4.50;;
74383;SDS011;62824;52.994;-3.936;2022-12-10T00:48:37;10.18;;;5.47;;
74383;SDS011;62824;52.994;-3.936;2022-12-10T00:51:05;8.93;;;4.55;;
74383;SDS011;62824;52.994;-3.936;2022-12-10T00:53:33;10.75;;;4.65;;
74383;SDS011;62824;52.994;-3.936;2022-12-10T00:56:00;16.67;;;6.22;;
74383;SDS011;62824;52.994;-3.936;2022-12-10T00:58:28;15.82;;;7.05;;
74383;SDS011;62824;52.994;-3.936;2022-12-10T01:01:09;18.90;;;8.93;;
74383;SDS011;62824;52.994;-3.936;2022-12-10T01:03:36;21.73;;;9.77;;
74383;SDS011;62824;52.994;-3.936;2022-12-10T01:06:13;22.40;;;9.52;;
74383;SDS011;62824;52.994;-3.936;2022-12-10T01:08:47;18.25;;;8.13;;
74383;SDS011;62824;52.994;-3.936;2022-12-10T01:11:16;14.80;;;7.53;;
74383;SDS011;62824;52.994;-3.936;2022-12-10T01:13:43;19.40;;;7.60;;
74383;SDS011;62824;52.994;-3.936;2022-12-10T01:16:10;13.98;;;5.75;;
74383;SDS011;62824;52.994;-3.936;2022-12-10T01:18:37;14.85;;;7.00;;
74383;SDS011;62824;52.994;-3.936;2022-12-10T01:21:04;33.00;;;11.85;;
74383;SDS011;62824;52.994;-3.936;2022-12-10T01:23:32;18.10;;;8.35;;
74383;SDS011;62824;52.994;-3.936;2022-12-10T01:26:00;16.08;;;8.02;;
74383;SDS011;62824;52.994;-3.936;2022-12-10T01:28:28;21.15;;;10.45;;
74383;SDS011;62824;52.994;-3.936;2022-12-10T01:30:55;22.92;;;11.30;;
74383;SDS011;62824;52.994;-3.936;2022-12-10T01:33:24;28.45;;;13.45;;
74383;SDS011;62824;52.994;-3.936;2022-12-10T01:35:49;19.25;;;9.30;;
74383;SDS011;62824;52.994;-3.936;2022-12-10T01:38:15;16.23;;;7.85;;
74383;SDS011;62824;52.994;-3.936;2022-12-10T01:40:41;11.50;;;4.30;;
74383;SDS011;62824;52.994;-3.936;2022-12-10T01:43:10;6.85;;;3.55;;
74383;SDS011;62824;52.994;-3.936;2022-12-10T01:45:39;13.48;;;6.97;;
74383;SDS011;62824;52.994;-3.936;2022-12-10T01:48:05;18.17;;;8.25;;
74383;SDS011;62824;52.994;-3.936;2022-12-10T01:50:31;20.10;;;10.15;;
74383;SDS011;62824;52.994;-3.936;2022-12-10T01:52:57;22.27;;;11.38;;
74383;SDS011;62824;52.994;-3.936;2022-12-10T01:58:10;13.45;;;7.53;;
74383;SDS011;62824;52.994;-3.936;2022-12-10T02:00:40;21.05;;;8.32;;
74383;SDS011;62824;52.994;-3.936;2022-12-10T02:03:13;7.95;;;4.05;;
74383;SDS011;62824;52.994;-3.936;2022-12-10T02:05:56;8.75;;;4.00;;
74383;SDS011;62824;52.994;-3.936;2022-12-10T02:08:51;8.38;;;3.38;;
74383;SDS011;62824;52.994;-3.936;2022-12-10T02:11:43;7.50;;;3.58;;
74383;SDS011;62824;52.994;-3.936;2022-12-10T02:14:57;6.38;;;3.10;;
74383;SDS011;62824;52.994;-3.936;2022-12-10T02:17:05;6.35;;;2.85;;
74383;SDS011;62824;52.994;-3.936;2022-12-10T02:19:52;5.95;;;2.53;;
74383;SDS011;62824;52.994;-3.936;2022-12-10T02:22:22;7.38;;;2.92;;
74383;SDS011;62824;52.994;-3.936;2022-12-10T02:24:51;4.55;;;2.67;;
74383;SDS011;62824;52.994;-3.936;2022-12-10T02:27:25;4.75;;;2.55;;
74383;SDS011;62824;52.994;-3.936;2022-12-10T02:29:59;9.00;;;3.42;;
74383;SDS011;62824;52.994;-3.936;2022-12-10T02:32:29;7.15;;;3.42;;
74383;SDS011;62824;52.994;-3.936;2022-12-10T02:35:03;5.75;;;3.10;;
74383;SDS011;62824;52.994;-3.936;2022-12-10T02:37:33;8.27;;;3.47;;
74383;SDS011;62824;52.994;-3.936;2022-12-10T02:40:03;8.45;;;3.35;;
74383;SDS011;62824;52.994;-3.936;2022-12-10T02:42:33;6.32;;;2.60;;
74383;SDS011;62824;52.994;-3.936;2022-12-10T02:45:03;4.00;;;2.70;;
74383;SDS011;62824;52.994;-3.936;2022-12-10T02:47:30;3.83;;;1.85;;
74383;SDS011;62824;52.994;-3.936;2022-12-10T02:49:57;4.93;;;2.40;;
74383;SDS011;62824;52.994;-3.936;2022-12-10T02:52:24;3.58;;;1.70;;
74383;SDS011;62824;52.994;-3.936;2022-12-10T02:54:50;3.22;;;1.90;;
74383;SDS011;62824;52.994;-3.936;2022-12-10T03:00:05;4.68;;;2.70;;
74383;SDS011;62824;52.994;-3.936;2022-12-10T03:05:33;4.68;;;2.90;;
74383;SDS011;62824;52.994;-3.936;2022-12-10T03:13:23;5.97;;;2.78;;
74383;SDS011;62824;52.994;-3.936;2022-12-10T03:15:57;6.50;;;2.30;;
74383;SDS011;62824;52.994;-3.936;2022-12-10T03:18:25;3.72;;;2.10;;
74383;SDS011;62824;52.994;-3.936;2022-12-10T03:20:52;4.90;;;2.00;;
74383;SDS011;62824;52.994;-3.936;2022-12-10T03:23:21;3.70;;;1.90;;
74383;SDS011;62824;52.994;-3.936;2022-12-10T03:25:48;3.75;;;2.13;;
74383;SDS011;62824;52.994;-3.936;2022-12-10T03:28:15;4.07;;;1.88;;
74383;SDS011;62824;52.994;-3.936;2022-12-10T03:30:45;3.53;;;1.80;;
74383;SDS011;62824;52.994;-3.936;2022-12-10T03:33:12;3.75;;;1.60;;
74383;SDS011;62824;52.994;-3.936;2022-12-10T03:35:38;8.25;;;4.22;;
74383;SDS011;62824;52.994;-3.936;2022-12-10T03:38:05;5.00;;;2.95;;
74383;SDS011;62824;52.994;-3.936;2022-12-10T03:40:31;6.75;;;4.15;;
74383;SDS011;62824;52.994;-3.936;2022-12-10T03:42:57;10.55;;;5.22;;
74383;SDS011;62824;52.994;-3.936;2022-12-10T03:45:23;16.13;;;6.97;;
74383;SDS011;62824;52.994;-3.936;2022-12-10T03:47:48;8.77;;;5.43;;
74383;SDS011;62824;52.994;-3.936;2022-12-10T03:50:14;17.50;;;9.07;;
74383;SDS011;62824;52.994;-3.936;2022-12-10T03:52:41;16.25;;;9.60;;
74383;SDS011;62824;52.994;-3.936;2022-12-10T03:55:06;11.02;;;5.88;;
74383;SDS011;62824;52.994;-3.936;2022-12-10T03:57:33;10.48;;;5.28;;
74383;SDS011;62824;52.994;-3.936;2022-12-10T03:59:59;10.02;;;4.80;;
74383;SDS011;62824;52.994;-3.936;2022-12-10T04:02:25;14.45;;;7.05;;
74383;SDS011;62824;52.994;-3.936;2022-12-10T04:04:51;8.15;;;4.72;;
74383;SDS011;62824;52.994;-3.936;2022-12-10T04:07:16;6.53;;;4.20;;
74383;SDS011;62824;52.994;-3.936;2022-12-10T04:09:42;5.90;;;4.25;;
74383;SDS011;62824;52.994;-3.936;2022-12-10T04:12:08;7.63;;;5.10;;
74383;SDS011;62824;52.994;-3.936;2022-12-10T04:14:34;14.40;;;6.72;;
74383;SDS011;62824;52.994;-3.936;2022-12-10T04:17:18;12.40;;;5.88;;
74383;SDS011;62824;52.994;-3.936;2022-12-10T04:19:44;7.40;;;3.78;;
74383;SDS011;62824;52.994;-3.936;2022-12-10T04:22:10;6.28;;;3.72;;
74383;SDS011;62824;52.994;-3.936;2022-12-10T04:24:54;6.70;;;2.83;;
74383;SDS011;62824;52.994;-3.936;2022-12-10T04:27:38;3.05;;;1.90;;
74383;SDS011;62824;52.994;-3.936;2022-12-10T04:30:06;5.88;;;2.38;;
74383;SDS011;62824;52.994;-3.936;2022-12-10T04:32:34;6.30;;;2.53;;
74383;SDS011;62824;52.994;-3.936;2022-12-10T04:35:00;3.55;;;2.33;;
74383;SDS011;62824;52.994;-3.936;2022-12-10T04:37:27;6.38;;;3.13;;
74383;SDS011;62824;52.994;-3.936;2022-12-10T04:39:52;4.00;;;2.00;;
74383;SDS011;62824;52.994;-3.936;2022-12-10T04:42:19;2.25;;;1.80;;
74383;SDS011;62824;52.994;-3.936;2022-12-10T04:44:46;5.15;;;2.33;;
74383;SDS011;62824;52.994;-3.936;2022-12-10T04:47:12;4.43;;;2.00;;
74383;SDS011;62824;52.994;-3.936;2022-12-10T04:49:38;2.75;;;1.60;;
74383;SDS011;62824;52.994;-3.936;2022-12-10T04:52:04;2.78;;;1.55;;
74383;SDS011;62824;52.994;-3.936;2022-12-10T04:54:31;1.58;;;1.20;;
74383;SDS011;62824;52.994;-3.936;2022-12-10T04:56:57;3.78;;;1.40;;
74383;SDS011;62824;52.994;-3.936;2022-12-10T04:59:23;2.47;;;1.20;;
74383;SDS011;62824;52.994;-3.936;2022-12-10T05:01:49;4.82;;;1.67;;
74383;SDS011;62824;52.994;-3.936;2022-12-10T05:04:16;2.60;;;1.15;;
74383;SDS011;62824;52.994;-3.936;2022-12-10T05:06:43;1.52;;;1.30;;
74383;SDS011;62824;52.994;-3.936;2022-12-10T05:09:10;1.88;;;1.20;;
74383;SDS011;62824;52.994;-3.936;2022-12-10T05:11:37;2.92;;;1.05;;
74383;SDS011;62824;52.994;-3.936;2022-12-10T05:14:04;3.25;;;1.65;;
74383;SDS011;62824;52.994;-3.936;2022-12-10T05:16:31;1.70;;;1.27;;
74383;SDS011;62824;52.994;-3.936;2022-12-10T05:18:58;1.88;;;1.25;;
74383;SDS011;62824;52.994;-3.936;2022-12-10T05:21:25;1.77;;;1.10;;
74383;SDS011;62824;52.994;-3.936;2022-12-10T05:24:12;1.02;;;0.93;;
74383;SDS011;62824;52.994;-3.936;2022-12-10T05:26:39;2.28;;;1.30;;
74383;SDS011;62824;52.994;-3.936;2022-12-10T05:29:04;1.50;;;1.17;;
74383;SDS011;62824;52.994;-3.936;2022-12-10T05:31:30;7.60;;;1.58;;
74383;SDS011;62824;52.994;-3.936;2022-12-10T05:33:57;2.40;;;1.10;;
74383;SDS011;62824;52.994;-3.936;2022-12-10T05:36:24;3.50;;;1.70;;
74383;SDS011;62824;52.994;-3.936;2022-12-10T05:38:53;1.67;;;1.25;;
74383;SDS011;62824;52.994;-3.936;2022-12-10T05:41:21;2.97;;;1.42;;
74383;SDS011;62824;52.994;-3.936;2022-12-10T05:43:49;3.63;;;1.40;;
74383;SDS011;62824;52.994;-3.936;2022-12-10T05:46:19;2.17;;;1.52;;
74383;SDS011;62824;52.994;-3.936;2022-12-10T05:48:50;4.88;;;1.75;;
74383;SDS011;62824;52.994;-3.936;2022-12-10T05:51:17;2.65;;;1.45;;
74383;SDS011;62824;52.994;-3.936;2022-12-10T05:53:44;2.28;;;1.30;;
74383;SDS011;62824;52.994;-3.936;2022-12-10T05:56:12;3.75;;;1.85;;
74383;SDS011;62824;52.994;-3.936;2022-12-10T05:58:41;3.45;;;2.15;;
74383;SDS011;62824;52.994;-3.936;2022-12-10T06:01:12;4.05;;;1.55;;
74383;SDS011;62824;52.994;-3.936;2022-12-10T06:03:49;1.67;;;1.17;;
74383;SDS011;62824;52.994;-3.936;2022-12-10T06:06:19;3.10;;;1.10;;
74383;SDS011;62824;52.994;-3.936;2022-12-10T06:11:15;1.17;;;1.08;;
74383;SDS011;62824;52.994;-3.936;2022-12-10T06:13:41;2.08;;;1.17;;
74383;SDS011;62824;52.994;-3.936;2022-12-10T06:16:07;1.88;;;1.25;;
74383;SDS011;62824;52.994;-3.936;2022-12-10T06:18:34;1.98;;;1.25;;
74383;SDS011;62824;52.994;-3.936;2022-12-10T06:21:03;1.45;;;1.00;;
74383;SDS011;62824;52.994;-3.936;2022-12-10T06:23:30;0.60;;;0.60;;
74383;SDS011;62824;52.994;-3.936;2022-12-10T06:25:56;2.10;;;0.90;;
74383;SDS011;62824;52.994;-3.936;2022-12-10T06:28:22;1.15;;;0.98;;
74383;SDS011;62824;52.994;-3.936;2022-12-10T06:30:48;3.40;;;1.00;;
74383;SDS011;62824;52.994;-3.936;2022-12-10T06:33:13;1.85;;;0.90;;
74383;SDS011;62824;52.994;-3.936;2022-12-10T06:35:39;3.45;;;1.00;;
74383;SDS011;62824;52.994;-3.936;2022-12-10T06:38:05;1.10;;;0.77;;
74383;SDS011;62824;52.994;-3.936;2022-12-10T06:40:30;1.13;;;0.50;;
74383;SDS011;62824;52.994;-3.936;2022-12-10T06:42:56;2.53;;;1.10;;
74383;SDS011;62824;52.994;-3.936;2022-12-10T06:45:22;2.72;;;1.10;;
74383;SDS011;62824;52.994;-3.936;2022-12-10T06:47:48;3.03;;;1.02;;
74383;SDS011;62824;52.994;-3.936;2022-12-10T06:50:13;4.32;;;2.13;;
74383;SDS011;62824;52.994;-3.936;2022-12-10T06:52:39;2.55;;;0.90;;
74383;SDS011;62824;52.994;-3.936;2022-12-10T06:55:05;1.85;;;0.98;;
74383;SDS011;62824;52.994;-3.936;2022-12-10T06:57:31;2.88;;;1.20;;
74383;SDS011;62824;52.994;-3.936;2022-12-10T06:59:56;1.27;;;1.10;;
74383;SDS011;62824;52.994;-3.936;2022-12-10T07:02:22;1.25;;;0.80;;
74383;SDS011;62824;52.994;-3.936;2022-12-10T07:04:48;4.88;;;1.98;;
74383;SDS011;62824;52.994;-3.936;2022-12-10T07:07:13;8.43;;;2.67;;
74383;SDS011;62824;52.994;-3.936;2022-12-10T07:09:39;2.15;;;1.50;;
74383;SDS011;62824;52.994;-3.936;2022-12-10T07:12:05;2.80;;;1.10;;
74383;SDS011;62824;52.994;-3.936;2022-12-10T07:14:31;2.28;;;1.50;;
74383;SDS011;62824;52.994;-3.936;2022-12-10T07:16:56;6.80;;;2.60;;
74383;SDS011;62824;52.994;-3.936;2022-12-10T07:19:22;4.20;;;2.75;;
74383;SDS011;62824;52.994;-3.936;2022-12-10T07:21:48;5.55;;;2.72;;
74383;SDS011;62824;52.994;-3.936;2022-12-10T07:24:15;3.53;;;2.40;;
74383;SDS011;62824;52.994;-3.936;2022-12-10T07:26:44;2.85;;;2.20;;
74383;SDS011;62824;52.994;-3.936;2022-12-10T07:29:16;2.65;;;1.70;;
74383;SDS011;62824;52.994;-3.936;2022-12-10T07:31:44;3.35;;;2.10;;
74383;SDS011;62824;52.994;-3.936;2022-12-10T07:34:13;2.05;;;1.52;;
74383;SDS011;62824;52.994;-3.936;2022-12-10T07:36:40;2.33;;;1.70;;
74383;SDS011;62824;52.994;-3.936;2022-12-10T07:39:06;6.45;;;3.10;;
74383;SDS011;62824;52.994;-3.936;2022-12-10T07:41:33;2.35;;;1.48;;
74383;SDS011;62824;52.994;-3.936;2022-12-10T07:44:01;3.78;;;1.98;;
74383;SDS011;62824;52.994;-3.936;2022-12-10T07:46:29;2.28;;;1.10;;
74383;SDS011;62824;52.994;-3.936;2022-12-10T07:48:56;3.15;;;1.38;;
74383;SDS011;62824;52.994;-3.936;2022-12-10T07:51:25;2.65;;;1.30;;
74383;SDS011;62824;52.994;-3.936;2022-12-10T07:53:51;3.15;;;1.70;;
74383;SDS011;62824;52.994;-3.936;2022-12-10T07:56:18;2.00;;;1.20;;
74383;SDS011;62824;52.994;-3.936;2022-12-10T07:58:44;2.55;;;1.33;;
74383;SDS011;62824;52.994;-3.936;2022-12-10T08:01:11;4.20;;;1.40;;
74383;SDS011;62824;52.994;-3.936;2022-12-10T08:03:38;10.07;;;6.40;;
74383;SDS011;62824;52.994;-3.936;2022-12-10T08:06:08;4.30;;;1.42;;
74383;SDS011;62824;52.994;-3.936;2022-12-10T08:08:37;1.00;;;0.90;;
74383;SDS011;62824;52.994;-3.936;2022-12-10T08:11:03;2.22;;;1.17;;
74383;SDS011;62824;52.994;-3.936;2022-12-10T08:13:29;1.30;;;1.20;;
74383;SDS011;62824;52.994;-3.936;2022-12-10T08:16:02;1.83;;;1.20;;
74383;SDS011;62824;52.994;-3.936;2022-12-10T08:18:30;7.50;;;2.10;;
74383;SDS011;62824;52.994;-3.936;2022-12-10T08:20:56;7.35;;;2.30;;
74383;SDS011;62824;52.994;-3.936;2022-12-10T08:23:22;11.93;;;5.60;;
74383;SDS011;62824;52.994;-3.936;2022-12-10T08:25:48;9.80;;;4.15;;
74383;SDS011;62824;52.994;-3.936;2022-12-10T08:28:14;6.43;;;3.30;;
74383;SDS011;62824;52.994;-3.936;2022-12-10T08:30:45;5.38;;;3.05;;
74383;SDS011;62824;52.994;-3.936;2022-12-10T08:33:12;5.93;;;2.72;;
74383;SDS011;62824;52.994;-3.936;2022-12-10T08:35:37;2.72;;;1.73;;
74383;SDS011;62824;52.994;-3.936;2022-12-10T08:38:03;4.03;;;2.38;;
74383;SDS011;62824;52.994;-3.936;2022-12-10T08:40:29;4.25;;;2.22;;
74383;SDS011;62824;52.994;-3.936;2022-12-10T08:42:55;2.65;;;1.70;;
74383;SDS011;62824;52.994;-3.936;2022-12-10T08:45:21;2.35;;;1.85;;
74383;SDS011;62824;52.994;-3.936;2022-12-10T08:47:46;4.38;;;3.30;;
74383;SDS011;62824;52.994;-3.936;2022-12-10T08:50:12;6.05;;;3.50;;
74383;SDS011;62824;52.994;-3.936;2022-12-10T08:52:38;6.13;;;4.50;;
74383;SDS011;62824;52.994;-3.936;2022-12-10T08:55:04;9.23;;;5.18;;
74383;SDS011;62824;52.994;-3.936;2022-12-10T08:57:30;7.22;;;4.10;;
74383;SDS011;62824;52.994;-3.936;2022-12-10T08:59:55;5.75;;;3.92;;
74383;SDS011;62824;52.994;-3.936;2022-12-10T09:02:21;4.75;;;2.75;;
74383;SDS011;62824;52.994;-3.936;2022-12-10T09:04:47;4.20;;;2.03;;
74383;SDS011;62824;52.994;-3.936;2022-12-10T09:07:14;8.93;;;3.53;;
74383;SDS011;62824;52.994;-3.936;2022-12-10T09:09:40;3.25;;;2.08;;
74383;SDS011;62824;52.994;-3.936;2022-12-10T09:12:06;4.32;;;2.80;;
74383;SDS011;62824;52.994;-3.936;2022-12-10T09:14:32;7.63;;;3.05;;
74383;SDS011;62824;52.994;-3.936;2022-12-10T09:16:58;11.70;;;4.22;;
74383;SDS011;62824;52.994;-3.936;2022-12-10T09:19:24;6.95;;;3.28;;
74383;SDS011;62824;52.994;-3.936;2022-12-10T09:21:50;5.03;;;2.10;;
74383;SDS011;62824;52.994;-3.936;2022-12-10T09:24:15;3.33;;;1.80;;
74383;SDS011;62824;52.994;-3.936;2022-12-10T09:26:41;7.60;;;3.10;;
74383;SDS011;62824;52.994;-3.936;2022-12-10T09:29:07;7.68;;;2.67;;
74383;SDS011;62824;52.994;-3.936;2022-12-10T09:31:32;7.70;;;3.55;;
74383;SDS011;62824;52.994;-3.936;2022-12-10T09:33:58;9.15;;;3.65;;
74383;SDS011;62824;52.994;-3.936;2022-12-10T09:36:24;4.93;;;2.63;;
74383;SDS011;62824;52.994;-3.936;2022-12-10T09:38:50;4.32;;;1.90;;
74383;SDS011;62824;52.994;-3.936;2022-12-10T09:52:00;11.30;;;6.95;;
74383;SDS011;62824;52.994;-3.936;2022-12-10T09:57:10;6.80;;;4.72;;
74383;SDS011;62824;52.994;-3.936;2022-12-10T09:59:52;5.18;;;2.63;;
74383;SDS011;62824;52.994;-3.936;2022-12-10T10:02:31;5.00;;;2.30;;
74383;SDS011;62824;52.994;-3.936;2022-12-10T10:07:33;6.38;;;3.28;;
74383;SDS011;62824;52.994;-3.936;2022-12-10T10:10:27;11.18;;;5.45;;
74383;SDS011;62824;52.994;-3.936;2022-12-10T10:13:01;10.75;;;6.03;;
74383;SDS011;62824;52.994;-3.936;2022-12-10T10:15:37;12.27;;;6.25;;
74383;SDS011;62824;52.994;-3.936;2022-12-10T10:20:40;11.77;;;5.82;;
74383;SDS011;62824;52.994;-3.936;2022-12-10T10:23:09;8.00;;;4.97;;
74383;SDS011;62824;52.994;-3.936;2022-12-10T10:25:40;13.50;;;7.63;;
74383;SDS011;62824;52.994;-3.936;2022-12-10T10:28:09;19.08;;;11.75;;
74383;SDS011;62824;52.994;-3.936;2022-12-10T10:30:54;13.30;;;8.60;;
74383;SDS011;62824;52.994;-3.936;2022-12-10T10:33:52;11.25;;;7.07;;
74383;SDS011;62824;52.994;-3.936;2022-12-10T10:36:38;16.42;;;8.88;;
74383;SDS011;62824;52.994;-3.936;2022-12-10T10:41:52;15.98;;;7.78;;
74383;SDS011;62824;52.994;-3.936;2022-12-10T10:44:20;10.38;;;4.88;;
74383;SDS011;62824;52.994;-3.936;2022-12-10T10:46:49;8.38;;;3.92;;
74383;SDS011;62824;52.994;-3.936;2022-12-10T10:51:49;13.52;;;7.15;;
74383;SDS011;62824;52.994;-3.936;2022-12-10T10:57:21;3.80;;;2.70;;
74383;SDS011;62824;52.994;-3.936;2022-12-10T11:00:18;5.10;;;2.60;;
74383;SDS011;62824;52.994;-3.936;2022-12-10T11:02:47;5.47;;;2.72;;
74383;SDS011;62824;52.994;-3.936;2022-12-10T11:05:19;5.47;;;2.40;;
74383;SDS011;62824;52.994;-3.936;2022-12-10T11:08:04;3.22;;;2.08;;
74383;SDS011;62824;52.994;-3.936;2022-12-10T11:10:37;3.88;;;2.00;;
74383;SDS011;62824;52.994;-3.936;2022-12-10T11:13:34;4.55;;;2.20;;
74383;SDS011;62824;52.994;-3.936;2022-12-10T11:16:17;5.00;;;2.80;;
74383;SDS011;62824;52.994;-3.936;2022-12-10T11:18:54;5.00;;;3.42;;
74383;SDS011;62824;52.994;-3.936;2022-12-10T11:21:21;7.35;;;4.35;;
74383;SDS011;62824;52.994;-3.936;2022-12-10T11:23:48;9.73;;;3.90;;
74383;SDS011;62824;52.994;-3.936;2022-12-10T11:34:14;3.42;;;2.33;;
74383;SDS011;62824;52.994;-3.936;2022-12-10T11:50:58;4.50;;;2.13;;
74383;SDS011;62824;52.994;-3.936;2022-12-10T12:01:30;2.63;;;1.90;;
74383;SDS011;62824;52.994;-3.936;2022-12-10T12:04:28;8.68;;;5.03;;
74383;SDS011;62824;52.994;-3.936;2022-12-10T12:10:24;8.13;;;5.57;;
74383;SDS011;62824;52.994;-3.936;2022-12-10T12:13:04;4.43;;;3.28;;
74383;SDS011;62824;52.994;-3.936;2022-12-10T12:16:09;4.32;;;3.58;;
74383;SDS011;62824;52.994;-3.936;2022-12-10T12:21:22;4.13;;;2.47;;
74383;SDS011;62824;52.994;-3.936;2022-12-10T12:23:58;5.40;;;2.70;;
74383;SDS011;62824;52.994;-3.936;2022-12-10T12:26:42;6.40;;;3.50;;
74383;SDS011;62824;52.994;-3.936;2022-12-10T12:29:15;9.35;;;5.40;;
74383;SDS011;62824;52.994;-3.936;2022-12-10T12:34:26;8.77;;;5.60;;
74383;SDS011;62824;52.994;-3.936;2022-12-10T12:37:02;8.82;;;5.38;;
74383;SDS011;62824;52.994;-3.936;2022-12-10T12:50:49;10.70;;;4.70;;
74383;SDS011;62824;52.994;-3.936;2022-12-10T12:52:58;7.40;;;2.53;;
74383;SDS011;62824;52.994;-3.936;2022-12-10T13:00:39;10.02;;;5.13;;
74383;SDS011;62824;52.994;-3.936;2022-12-10T13:03:19;8.20;;;4.85;;
74383;SDS011;62824;52.994;-3.936;2022-12-10T13:06:11;9.90;;;5.70;;
74383;SDS011;62824;52.994;-3.936;2022-12-10T13:25:02;13.48;;;9.52;;
74383;SDS011;62824;52.994;-3.936;2022-12-10T13:40:22;3.50;;;1.98;;
74383;SDS011;62824;52.994;-3.936;2022-12-10T13:46:55;11.15;;;6.43;;
74383;SDS011;62824;52.994;-3.936;2022-12-10T13:49:30;15.93;;;7.00;;
74383;SDS011;62824;52.994;-3.936;2022-12-10T14:00:32;7.53;;;4.00;;
74383;SDS011;62824;52.994;-3.936;2022-12-10T14:08:20;10.60;;;6.00;;
74383;SDS011;62824;52.994;-3.936;2022-12-10T14:10:52;8.77;;;5.57;;
74383;SDS011;62824;52.994;-3.936;2022-12-10T14:13:20;8.15;;;4.32;;
74383;SDS011;62824;52.994;-3.936;2022-12-10T14:15:55;10.15;;;5.72;;
74383;SDS011;62824;52.994;-3.936;2022-12-10T14:18:25;24.85;;;11.15;;
74383;SDS011;62824;52.994;-3.936;2022-12-10T14:20:53;7.32;;;3.78;;
74383;SDS011;62824;52.994;-3.936;2022-12-10T14:26:11;0.85;;;0.75;;
74383;SDS011;62824;52.994;-3.936;2022-12-10T14:31:19;2.55;;;1.58;;
74383;SDS011;62824;52.994;-3.936;2022-12-10T14:33:50;1.17;;;0.47;;
74383;SDS011;62824;52.994;-3.936;2022-12-10T14:36:39;1.60;;;0.98;;
74383;SDS011;62824;52.994;-3.936;2022-12-10T14:39:16;0.73;;;0.70;;
74383;SDS011;62824;52.994;-3.936;2022-12-10T14:41:44;4.53;;;2.85;;
74383;SDS011;62824;52.994;-3.936;2022-12-10T14:44:12;8.77;;;4.30;;
74383;SDS011;62824;52.994;-3.936;2022-12-10T14:46:40;5.38;;;3.10;;
74383;SDS011;62824;52.994;-3.936;2022-12-10T14:49:08;11.82;;;4.90;;
74383;SDS011;62824;52.994;-3.936;2022-12-10T14:51:42;3.35;;;2.50;;
74383;SDS011;62824;52.994;-3.936;2022-12-10T14:56:54;5.28;;;3.35;;
74383;SDS011;62824;52.994;-3.936;2022-12-10T14:59:29;9.48;;;5.30;;
74383;SDS011;62824;52.994;-3.936;2022-12-10T15:02:04;10.80;;;5.93;;
74383;SDS011;62824;52.994;-3.936;2022-12-10T15:04:42;13.32;;;7.03;;
74383;SDS011;62824;52.994;-3.936;2022-12-10T15:07:17;10.32;;;5.68;;
74383;SDS011;62824;52.994;-3.936;2022-12-10T15:09:46;4.88;;;3.45;;
74383;SDS011;62824;52.994;-3.936;2022-12-10T15:12:15;4.93;;;2.58;;
74383;SDS011;62824;52.994;-3.936;2022-12-10T15:14:50;6.85;;;3.95;;
74383;SDS011;62824;52.994;-3.936;2022-12-10T15:17:39;7.82;;;5.13;;
74383;SDS011;62824;52.994;-3.936;2022-12-10T15:20:20;9.45;;;5.65;;
74383;SDS011;62824;52.994;-3.936;2022-12-10T15:22:49;7.05;;;4.28;;
74383;SDS011;62824;52.994;-3.936;2022-12-10T15:28:25;5.82;;;2.88;;
74383;SDS011;62824;52.994;-3.936;2022-12-10T15:30:56;11.90;;;5.95;;
74383;SDS011;62824;52.994;-3.936;2022-12-10T15:33:56;14.30;;;8.40;;
74383;SDS011;62824;52.994;-3.936;2022-12-10T15:46:57;12.52;;;6.07;;
74383;SDS011;62824;52.994;-3.936;2022-12-10T15:49:36;10.20;;;6.50;;
74383;SDS011;62824;52.994;-3.936;2022-12-10T15:52:02;16.85;;;7.80;;
74383;SDS011;62824;52.994;-3.936;2022-12-10T15:54:32;19.60;;;10.32;;
74383;SDS011;62824;52.994;-3.936;2022-12-10T15:57:00;23.15;;;12.00;;
74383;SDS011;62824;52.994;-3.936;2022-12-10T15:59:40;39.28;;;18.20;;
74383;SDS011;62824;52.994;-3.936;2022-12-10T16:02:14;44.30;;;21.73;;
74383;SDS011;62824;52.994;-3.936;2022-12-10T16:04:57;25.33;;;14.23;;
74383;SDS011;62824;52.994;-3.936;2022-12-10T16:07:22;38.15;;;20.15;;
74383;SDS011;62824;52.994;-3.936;2022-12-10T16:09:48;39.33;;;22.30;;
74383;SDS011;62824;52.994;-3.936;2022-12-10T16:12:14;37.88;;;19.30;;
74383;SDS011;62824;52.994;-3.936;2022-12-10T16:14:44;26.15;;;15.57;;
74383;SDS011;62824;52.994;-3.936;2022-12-10T16:17:14;26.52;;;14.18;;
74383;SDS011;62824;52.994;-3.936;2022-12-10T16:19:40;32.58;;;16.70;;
74383;SDS011;62824;52.994;-3.936;2022-12-10T16:22:06;21.90;;;12.90;;
74383;SDS011;62824;52.994;-3.936;2022-12-10T16:24:32;19.60;;;12.30;;
74383;SDS011;62824;52.994;-3.936;2022-12-10T16:26:58;14.27;;;8.93;;
74383;SDS011;62824;52.994;-3.936;2022-12-10T16:29:24;14.90;;;8.57;;
74383;SDS011;62824;52.994;-3.936;2022-12-10T16:31:49;15.90;;;8.82;;
74383;SDS011;62824;52.994;-3.936;2022-12-10T16:34:15;13.00;;;8.27;;
74383;SDS011;62824;52.994;-3.936;2022-12-10T16:36:41;13.52;;;8.05;;
74383;SDS011;62824;52.994;-3.936;2022-12-10T16:39:10;15.70;;;7.43;;
74383;SDS011;62824;52.994;-3.936;2022-12-10T16:41:36;12.68;;;7.22;;
74383;SDS011;62824;52.994;-3.936;2022-12-10T16:44:02;13.35;;;6.47;;
74383;SDS011;62824;52.994;-3.936;2022-12-10T16:46:28;14.07;;;7.85;;
74383;SDS011;62824;52.994;-3.936;2022-12-10T16:48:54;14.85;;;7.53;;
74383;SDS011;62824;52.994;-3.936;2022-12-10T16:51:24;11.40;;;6.80;;
74383;SDS011;62824;52.994;-3.936;2022-12-10T16:53:56;11.25;;;7.85;;
74383;SDS011;62824;52.994;-3.936;2022-12-10T16:56:22;15.40;;;8.55;;
74383;SDS011;62824;52.994;-3.936;2022-12-10T16:58:48;8.65;;;5.75;;
74383;SDS011;62824;52.994;-3.936;2022-12-10T17:01:21;11.23;;;7.03;;
74383;SDS011;62824;52.994;-3.936;2022-12-10T17:03:49;18.05;;;9.45;;
74383;SDS011;62824;52.994;-3.936;2022-12-10T17:06:16;11.48;;;7.30;;
74383;SDS011;62824;52.994;-3.936;2022-12-10T17:08:43;9.48;;;5.85;;
74383;SDS011;62824;52.994;-3.936;2022-12-10T17:11:23;8.23;;;5.55;;
74383;SDS011;62824;52.994;-3.936;2022-12-10T17:14:22;7.28;;;4.28;;
74383;SDS011;62824;52.994;-3.936;2022-12-10T17:16:50;9.75;;;5.15;;
74383;SDS011;62824;52.994;-3.936;2022-12-10T17:19:18;7.40;;;4.60;;
74383;SDS011;62824;52.994;-3.936;2022-12-10T17:21:43;8.20;;;5.70;;
74383;SDS011;62824;52.994;-3.936;2022-12-10T17:24:09;9.55;;;5.97;;
74383;SDS011;62824;52.994;-3.936;2022-12-10T17:26:39;7.18;;;4.90;;
74383;SDS011;62824;52.994;-3.936;2022-12-10T17:29:15;7.55;;;4.43;;
74383;SDS011;62824;52.994;-3.936;2022-12-10T17:31:48;8.40;;;5.75;;
74383;SDS011;62824;52.994;-3.936;2022-12-10T17:34:14;17.30;;;10.60;;